Time;durP1;ratioP1;P1;durP2;ratioP2;P2;SDS_P1;SDS_P2;PMS_P1;PMS_P2;Temp;Humidity;BMP_temperature;BMP_pressure;BME280_temperature;BME280_humidity;BME280_pressure;Samples;Min_cycle;Max_cycle;Signal;HPM_P1;HPM_P2
2023/06/09 00:01:55;;;;;;;4.68;1.33;;;11.70;99.90;;;;;;5069199;28;20044;-65
2023/06/09 00:04:23;;;;;;;4.35;1.65;;;11.70;99.90;;;;;;5069919;28;20052;-65
2023/06/09 00:06:51;;;;;;;4.38;2.17;;;11.70;99.90;;;;;;5068901;28;20040;-65
2023/06/09 00:09:18;;;;;;;3.22;1.48;;;11.70;99.90;;;;;;5070982;28;20048;-65
2023/06/09 00:11:45;;;;;;;1.90;1.10;;;11.70;99.90;;;;;;5070895;28;20044;-65
2023/06/09 00:14:11;;;;;;;3.35;1.20;;;11.70;99.90;;;;;;5068831;28;20508;-65
2023/06/09 00:16:37;;;;;;;3.38;1.40;;;11.60;99.90;;;;;;5069353;28;20036;-65
2023/06/09 00:19:04;;;;;;;4.80;1.60;;;11.60;99.90;;;;;;5069361;28;20177;-65
2023/06/09 00:21:30;;;;;;;2.78;1.42;;;11.60;99.90;;;;;;5068854;28;20040;-65
2023/06/09 00:23:57;;;;;;;3.25;1.63;;;11.60;99.90;;;;;;5069418;28;20040;-65
2023/06/09 00:26:23;;;;;;;3.47;1.50;;;11.50;99.90;;;;;;5052448;28;20045;-65
2023/06/09 00:28:49;;;;;;;5.88;1.50;;;11.50;99.90;;;;;;5070332;28;20047;-65
2023/06/09 00:31:15;;;;;;;2.92;1.27;;;11.50;99.90;;;;;;5069976;28;20563;-65
2023/06/09 00:33:40;;;;;;;3.53;1.10;;;11.50;99.90;;;;;;5069824;28;20040;-64
2023/06/09 00:36:07;;;;;;;6.78;1.95;;;11.50;99.90;;;;;;5052945;28;20127;-65
2023/06/09 00:38:34;;;;;;;2.70;1.33;;;11.50;99.90;;;;;;5070064;28;20040;-65
2023/06/09 00:41:00;;;;;;;5.50;1.80;;;11.50;99.90;;;;;;5071150;28;20037;-65
2023/06/09 00:43:26;;;;;;;3.35;1.65;;;11.50;99.90;;;;;;5070034;28;20155;-65
2023/06/09 00:45:53;;;;;;;2.47;1.35;;;11.60;99.90;;;;;;5069958;28;20051;-65
2023/06/09 00:48:19;;;;;;;3.25;1.80;;;11.60;99.90;;;;;;5053166;28;20493;-65
2023/06/09 00:50:45;;;;;;;5.95;1.48;;;11.60;99.90;;;;;;5070241;28;20464;-65
2023/06/09 00:53:12;;;;;;;3.33;1.67;;;11.60;99.90;;;;;;5069373;28;20048;-65
2023/06/09 00:55:40;;;;;;;2.78;0.93;;;11.70;99.90;;;;;;5070161;28;20047;-65
2023/06/09 00:58:07;;;;;;;11.85;1.48;;;11.70;99.90;;;;;;5069389;28;20120;-65
2023/06/09 01:00:35;;;;;;;5.25;1.23;;;11.70;99.90;;;;;;5052886;28;20040;-65
2023/06/09 01:03:02;;;;;;;3.83;1.27;;;11.70;99.90;;;;;;5070152;28;20113;-65
2023/06/09 01:05:39;;;;;;;7.53;1.88;;;11.70;99.90;;;;;;5052640;28;20075;-65
2023/06/09 01:08:18;;;;;;;5.43;1.20;;;11.60;99.90;;;;;;5069498;28;20106;-65
2023/06/09 01:10:49;;;;;;;7.25;0.95;;;11.70;99.90;;;;;;5069982;28;20522;-64
2023/06/09 01:13:26;;;;;;;5.90;2.08;;;11.70;99.90;;;;;;5069233;28;20044;-66
2023/06/09 01:15:59;;;;;;;4.15;1.40;;;11.70;99.90;;;;;;5069334;28;20036;-65
2023/06/09 01:18:26;;;;;;;5.07;1.38;;;11.60;99.90;;;;;;5068550;28;20083;-65
2023/06/09 01:21:17;;;;;;;6.05;2.13;;;11.60;99.90;;;;;;5070654;28;20116;-65
2023/06/09 01:23:51;;;;;;;7.40;1.67;;;11.60;99.90;;;;;;5068282;28;20044;-65
2023/06/09 01:26:17;;;;;;;2.95;1.13;;;11.60;99.90;;;;;;5068888;28;20045;-65
2023/06/09 01:28:46;;;;;;;3.83;1.00;;;11.60;99.90;;;;;;5052231;28;20036;-65
2023/06/09 01:31:15;;;;;;;5.72;2.05;;;11.60;99.90;;;;;;5068035;28;20032;-65
2023/06/09 01:33:44;;;;;;;8.07;1.88;;;11.60;99.90;;;;;;5070276;28;20048;-65
2023/06/09 01:36:11;;;;;;;2.80;1.38;;;11.60;99.90;;;;;;5069984;28;20044;-65
2023/06/09 01:38:38;;;;;;;3.58;1.35;;;11.60;99.90;;;;;;5068053;28;20078;-65
2023/06/09 01:41:04;;;;;;;3.55;1.92;;;11.60;99.90;;;;;;5068977;28;20125;-65
2023/06/09 01:43:30;;;;;;;2.60;1.17;;;11.60;99.90;;;;;;5068692;28;20076;-65
2023/06/09 01:45:56;;;;;;;5.10;1.90;;;11.60;99.90;;;;;;5068521;28;20083;-65
2023/06/09 01:48:39;;;;;;;3.67;1.70;;;11.50;99.90;;;;;;5068526;28;20600;-65
2023/06/09 01:51:07;;;;;;;4.40;1.83;;;11.60;99.90;;;;;;5068452;28;20106;-65
2023/06/09 01:53:36;;;;;;;9.05;1.95;;;11.50;99.90;;;;;;5069401;28;20048;-65
2023/06/09 01:56:25;;;;;;;5.80;1.13;;;11.50;99.90;;;;;;5069440;28;20044;-65
2023/06/09 01:59:00;;;;;;;7.65;1.98;;;11.50;99.90;;;;;;5069277;28;20115;-65
2023/06/09 02:01:26;;;;;;;8.60;1.90;;;11.50;99.90;;;;;;5069898;28;20081;-65
2023/06/09 02:03:54;;;;;;;7.95;2.03;;;11.50;99.90;;;;;;5068742;28;20459;-65
2023/06/09 02:06:20;;;;;;;3.42;1.25;;;11.50;99.90;;;;;;5069230;28;20036;-64
2023/06/09 02:08:47;;;;;;;10.20;1.83;;;11.50;99.90;;;;;;5069769;28;20556;-65
2023/06/09 02:11:13;;;;;;;4.88;2.22;;;11.50;99.90;;;;;;5068386;28;20040;-65
2023/06/09 02:13:39;;;;;;;2.83;1.30;;;11.50;99.90;;;;;;5069092;28;20040;-65
2023/06/09 02:16:06;;;;;;;7.88;2.22;;;11.40;99.90;;;;;;5068431;28;20040;-65
2023/06/09 02:18:32;;;;;;;5.38;1.98;;;11.40;99.90;;;;;;5069975;28;20089;-65
2023/06/09 02:20:58;;;;;;;4.68;2.08;;;11.40;99.90;;;;;;5067727;28;20119;-65
2023/06/09 02:23:24;;;;;;;7.57;2.20;;;11.40;99.90;;;;;;5068487;28;20592;-65
2023/06/09 02:25:50;;;;;;;4.50;1.92;;;11.40;99.90;;;;;;5069857;28;20078;-65
2023/06/09 02:28:17;;;;;;;4.97;2.13;;;11.40;99.90;;;;;;5068118;28;20150;-65
2023/06/09 02:30:43;;;;;;;4.97;2.03;;;11.40;99.90;;;;;;5068456;28;20038;-65
2023/06/09 02:33:10;;;;;;;4.32;1.67;;;11.40;99.90;;;;;;5068213;28;20044;-65
2023/06/09 02:35:36;;;;;;;4.05;1.95;;;11.40;99.90;;;;;;5067680;28;20044;-65
2023/06/09 02:38:06;;;;;;;3.63;1.77;;;11.40;99.90;;;;;;5069718;28;20404;-64
2023/06/09 02:40:32;;;;;;;3.50;1.55;;;11.40;99.90;;;;;;5051382;28;20072;-65
2023/06/09 02:42:59;;;;;;;6.25;2.13;;;11.40;99.90;;;;;;5068088;28;20635;-65
2023/06/09 02:45:25;;;;;;;3.80;1.67;;;11.40;99.90;;;;;;5068172;28;20040;-65
2023/06/09 02:47:51;;;;;;;4.78;1.52;;;11.40;99.90;;;;;;5067806;28;20123;-65
2023/06/09 02:50:17;;;;;;;4.38;2.08;;;11.40;99.90;;;;;;5068085;28;20060;-65
2023/06/09 02:52:44;;;;;;;4.93;2.42;;;11.40;99.90;;;;;;5069130;28;20076;-64
2023/06/09 02:55:11;;;;;;;3.67;2.13;;;11.30;99.90;;;;;;5068839;28;20119;-65
2023/06/09 02:57:37;;;;;;;2.88;1.50;;;11.40;99.90;;;;;;5068371;28;20047;-65
2023/06/09 03:00:06;;;;;;;2.78;1.13;;;11.40;99.90;;;;;;5051558;28;20036;-65
2023/06/09 03:02:32;;;;;;;3.28;1.83;;;11.40;99.90;;;;;;5067615;28;20485;-64
2023/06/09 03:04:58;;;;;;;3.78;1.48;;;11.30;99.90;;;;;;5051181;28;20052;-65
2023/06/09 03:07:24;;;;;;;1.63;1.13;;;11.30;99.90;;;;;;5071742;28;20043;-65
2023/06/09 03:09:50;;;;;;;7.30;1.80;;;11.30;99.90;;;;;;5071002;28;20044;-65
2023/06/09 03:12:15;;;;;;;3.97;1.92;;;11.30;99.90;;;;;;5072492;28;20127;-65
2023/06/09 03:14:41;;;;;;;2.65;1.77;;;11.30;99.90;;;;;;5073010;28;20112;-65
2023/06/09 03:17:07;;;;;;;5.78;2.17;;;11.30;99.90;;;;;;5072028;28;20556;-65
2023/06/09 03:19:33;;;;;;;8.10;1.95;;;11.30;99.90;;;;;;5071603;28;20032;-65
2023/06/09 03:22:03;;;;;;;3.88;1.63;;;11.40;99.90;;;;;;5072680;28;20076;-65
2023/06/09 03:24:29;;;;;;;4.50;1.77;;;11.40;99.90;;;;;;5070992;28;20048;-65
2023/06/09 03:26:55;;;;;;;2.88;1.45;;;11.40;99.90;;;;;;5071462;28;20049;-65
2023/06/09 03:29:22;;;;;;;2.97;1.40;;;11.40;99.90;;;;;;5071447;28;20047;-65
2023/06/09 03:31:47;;;;;;;6.22;1.52;;;11.40;99.90;;;;;;5071764;28;20048;-65
2023/06/09 03:34:13;;;;;;;3.47;1.30;;;11.40;99.90;;;;;;5071058;28;20048;-65
2023/06/09 03:36:39;;;;;;;5.18;2.10;;;11.40;99.90;;;;;;5070338;28;20054;-65
2023/06/09 03:39:06;;;;;;;3.25;1.67;;;11.40;99.90;;;;;;5072314;28;20124;-65
2023/06/09 03:41:32;;;;;;;4.72;2.30;;;11.40;99.90;;;;;;5070999;28;20094;-65
2023/06/09 03:43:58;;;;;;;7.60;1.50;;;11.40;99.90;;;;;;5070270;28;20041;-65
2023/06/09 03:46:24;;;;;;;3.58;1.80;;;11.50;99.90;;;;;;5070933;28;20124;-65
2023/06/09 03:48:51;;;;;;;4.88;1.67;;;11.50;99.90;;;;;;5070998;28;20036;-66
2023/06/09 03:51:18;;;;;;;12.20;2.35;;;11.50;99.90;;;;;;5053589;28;20075;-65
2023/06/09 03:53:45;;;;;;;2.88;1.60;;;11.50;99.90;;;;;;5070799;28;20493;-65
2023/06/09 03:56:11;;;;;;;8.27;1.55;;;11.60;99.90;;;;;;5070716;28;20037;-65
2023/06/09 03:58:37;;;;;;;4.75;1.55;;;11.50;99.90;;;;;;5070334;28;20040;-65
2023/06/09 04:01:03;;;;;;;6.10;2.30;;;11.60;99.90;;;;;;5072145;28;20067;-65
2023/06/09 04:03:30;;;;;;;3.22;1.90;;;11.60;99.90;;;;;;5070734;28;20048;-66
2023/06/09 04:05:56;;;;;;;7.05;2.17;;;11.60;99.90;;;;;;5071130;28;20497;-66
2023/06/09 04:08:22;;;;;;;5.47;2.00;;;11.60;99.90;;;;;;5053747;28;20051;-65
2023/06/09 04:10:47;;;;;;;5.28;1.23;;;11.60;99.90;;;;;;5071891;28;20040;-66
2023/06/09 04:13:13;;;;;;;3.80;2.28;;;11.70;99.90;;;;;;5070052;28;20044;-65
2023/06/09 04:15:39;;;;;;;6.47;2.13;;;11.70;99.90;;;;;;5070697;28;20094;-65
2023/06/09 04:18:05;;;;;;;4.22;1.67;;;11.70;99.90;;;;;;5053048;28;20037;-64
2023/06/09 04:20:31;;;;;;;2.33;1.33;;;11.70;99.90;;;;;;5069919;28;20037;-65
2023/06/09 04:22:57;;;;;;;4.57;1.95;;;11.70;99.90;;;;;;5070443;28;20040;-65
2023/06/09 04:25:25;;;;;;;3.42;1.33;;;11.80;99.90;;;;;;5071454;28;20477;-65
2023/06/09 04:27:55;;;;;;;2.20;1.30;;;11.80;99.90;;;;;;5070836;28;20123;-65
2023/06/09 04:30:25;;;;;;;5.20;1.73;;;11.90;99.90;;;;;;5070553;28;20049;-65
2023/06/09 04:32:54;;;;;;;9.98;1.92;;;11.90;99.90;;;;;;5052945;28;20036;-66
2023/06/09 04:35:24;;;;;;;7.47;1.45;;;12.00;99.90;;;;;;5053630;28;20117;-65
2023/06/09 04:37:50;;;;;;;3.40;1.20;;;12.00;99.90;;;;;;5071423;28;20444;-65
2023/06/09 04:40:23;;;;;;;5.10;2.25;;;12.00;99.90;;;;;;5069248;28;20746;-65
2023/06/09 04:42:56;;;;;;;4.95;2.03;;;12.10;99.90;;;;;;5053281;28;20041;-65
2023/06/09 04:45:34;;;;;;;4.75;2.13;;;12.20;99.90;;;;;;5070092;28;20056;-65
2023/06/09 04:48:00;;;;;;;5.65;1.50;;;12.20;99.90;;;;;;5052596;28;20047;-65
2023/06/09 04:50:32;;;;;;;5.13;2.15;;;12.20;99.90;;;;;;5069770;28;20056;-66
2023/06/09 04:52:59;;;;;;;3.20;1.52;;;12.30;99.90;;;;;;5069878;28;20044;-66
2023/06/09 04:55:26;;;;;;;4.35;1.33;;;12.40;99.90;;;;;;5058963;28;20419;-65
2023/06/09 04:57:56;;;;;;;3.50;1.73;;;12.40;99.90;;;;;;5049562;28;20041;-65
2023/06/09 05:00:31;;;;;;;5.28;1.05;;;12.50;99.90;;;;;;5049677;28;20037;-65
2023/06/09 05:02:57;;;;;;;3.97;2.08;;;12.60;99.90;;;;;;5032443;28;20052;-65
2023/06/09 05:05:25;;;;;;;4.68;1.92;;;12.60;99.90;;;;;;5049592;28;20072;-66
2023/06/09 05:07:51;;;;;;;2.35;1.50;;;12.80;99.90;;;;;;5050414;28;20519;-65
2023/06/09 05:10:18;;;;;;;3.47;1.67;;;12.80;99.90;;;;;;5049215;28;20125;-66
2023/06/09 05:12:44;;;;;;;2.88;1.52;;;12.90;99.90;;;;;;5049263;28;20048;-66
2023/06/09 05:15:10;;;;;;;7.13;2.00;;;13.00;99.90;;;;;;5048909;28;20036;-66
2023/06/09 05:17:41;;;;;;;9.13;2.95;;;13.00;99.90;;;;;;5032863;28;20041;-66
2023/06/09 05:20:09;;;;;;;5.18;2.05;;;13.10;99.90;;;;;;5049469;28;20125;-65
2023/06/09 05:22:35;;;;;;;5.38;2.17;;;13.20;99.90;;;;;;5049097;28;20037;-66
2023/06/09 05:25:08;;;;;;;3.92;1.52;;;13.30;99.90;;;;;;5049868;28;20049;-66
2023/06/09 05:27:33;;;;;;;8.82;2.05;;;13.40;99.90;;;;;;5048995;28;20045;-66
2023/06/09 05:29:59;;;;;;;5.82;1.77;;;13.50;99.90;;;;;;5031109;28;20037;-66
2023/06/09 05:32:25;;;;;;;4.35;2.10;;;13.60;99.90;;;;;;5049144;28;20044;-66
2023/06/09 05:34:52;;;;;;;4.18;1.67;;;13.70;99.90;;;;;;5049206;28;20508;-66
2023/06/09 05:37:18;;;;;;;6.13;1.98;;;13.80;99.90;;;;;;5048133;28;20037;-66
2023/06/09 05:39:44;;;;;;;4.15;2.10;;;13.90;99.90;;;;;;5048711;28;20099;-66
2023/06/09 05:42:10;;;;;;;3.83;1.60;;;14.00;99.90;;;;;;5032217;28;20516;-66
2023/06/09 05:44:37;;;;;;;6.20;2.25;;;14.00;99.90;;;;;;5048248;28;20076;-65
2023/06/09 05:47:03;;;;;;;3.83;1.70;;;14.10;99.90;;;;;;5032068;28;20049;-66
2023/06/09 05:49:29;;;;;;;7.82;2.15;;;14.30;99.90;;;;;;5049933;28;20044;-66
2023/06/09 05:51:55;;;;;;;3.65;2.10;;;14.40;99.90;;;;;;5049389;28;20064;-66
2023/06/09 05:54:21;;;;;;;4.55;1.67;;;14.50;99.90;;;;;;5048611;28;20041;-66
2023/06/09 05:56:48;;;;;;;2.53;1.20;;;14.60;99.90;;;;;;5031326;28;20124;-67
2023/06/09 05:59:15;;;;;;;5.80;1.95;;;14.70;99.90;;;;;;5031480;28;20208;-66
2023/06/09 06:01:45;;;;;;;5.15;2.33;;;14.90;99.90;;;;;;5031305;28;20044;-66
2023/06/09 06:04:11;;;;;;;5.97;1.73;;;15.00;99.90;;;;;;5046953;28;20119;-66
2023/06/09 06:06:37;;;;;;;3.63;1.92;;;15.10;99.90;;;;;;5050239;28;20131;-66
2023/06/09 06:09:03;;;;;;;9.60;2.00;;;15.20;99.90;;;;;;5067653;28;20093;-66
2023/06/09 06:11:30;;;;;;;3.67;1.83;;;15.30;99.90;;;;;;5067070;28;20086;-66
2023/06/09 06:13:56;;;;;;;6.03;1.58;;;15.50;99.90;;;;;;5068883;28;20448;-66
2023/06/09 06:16:22;;;;;;;4.70;2.05;;;15.60;99.90;;;;;;5068909;28;20077;-66
2023/06/09 06:18:48;;;;;;;5.88;2.05;;;15.80;99.90;;;;;;5068277;28;20496;-67
2023/06/09 06:21:14;;;;;;;5.03;1.70;;;15.90;99.90;;;;;;5068081;28;20037;-66
2023/06/09 06:23:40;;;;;;;4.60;1.67;;;16.00;99.90;;;;;;5069455;28;20471;-66
2023/06/09 06:26:06;;;;;;;5.30;1.52;;;16.20;99.90;;;;;;5067575;28;20566;-67
2023/06/09 06:28:32;;;;;;;6.18;1.80;;;16.30;99.90;;;;;;5069523;28;20076;-67
2023/06/09 06:30:57;;;;;;;4.63;2.33;;;16.40;99.90;;;;;;5068530;28;20040;-67
2023/06/09 06:33:23;;;;;;;4.10;2.15;;;16.50;99.90;;;;;;5068770;28;20459;-66
2023/06/09 06:35:50;;;;;;;3.15;1.60;;;16.70;99.90;;;;;;5068346;28;20040;-66
2023/06/09 06:38:16;;;;;;;3.70;1.90;;;16.90;99.90;;;;;;5068135;28;20047;-67
2023/06/09 06:40:43;;;;;;;8.98;2.90;;;17.10;99.90;;;;;;5068405;28;20407;-67
2023/06/09 06:43:09;;;;;;;6.28;1.30;;;17.30;99.90;;;;;;5073294;28;20402;-67
2023/06/09 06:45:35;;;;;;;3.63;1.90;;;17.50;99.90;;;;;;5071223;28;20048;-67
2023/06/09 06:48:01;;;;;;;5.60;1.45;;;17.80;99.90;;;;;;5071960;28;20105;-67
2023/06/09 06:50:30;;;;;;;8.30;1.50;;;18.00;99.90;;;;;;5055196;28;20110;-67
2023/06/09 06:52:55;;;;;;;5.80;1.60;;;18.30;99.90;;;;;;5054810;28;20136;-67
2023/06/09 06:55:21;;;;;;;4.72;1.75;;;18.40;99.90;;;;;;5072140;28;20131;-67
2023/06/09 06:57:47;;;;;;;5.05;1.92;;;18.60;99.90;;;;;;5071357;28;20040;-68
2023/06/09 07:00:16;;;;;;;3.67;1.70;;;18.70;99.90;;;;;;5071429;28;20044;-67
2023/06/09 07:02:46;;;;;;;6.97;1.83;;;18.90;99.90;;;;;;5069641;28;20044;-68
2023/06/09 07:05:12;;;;;;;;;;;19.10;99.90;;;;;;5071123;28;20493;-67
2023/06/09 07:07:38;;;;;;;7.43;2.38;;;19.20;99.90;;;;;;5068173;28;19969;-67
2023/06/09 07:10:05;;;;;;;7.47;1.90;;;19.40;99.90;;;;;;5071240;28;20120;-67
2023/06/09 07:12:32;;;;;;;5.30;1.60;;;19.60;99.90;;;;;;5072886;28;20094;-67
2023/06/09 07:14:58;;;;;;;3.42;1.60;;;19.80;99.90;;;;;;5070796;28;20047;-67
2023/06/09 07:17:24;;;;;;;3.70;1.65;;;20.00;99.90;;;;;;5072847;28;20032;-67
2023/06/09 07:19:50;;;;;;;3.72;1.77;;;20.10;99.90;;;;;;5071323;28;20115;-67
2023/06/09 07:22:16;;;;;;;4.85;1.80;;;20.30;99.90;;;;;;5054314;28;20044;-67
2023/06/09 07:24:41;;;;;;;3.95;1.38;;;20.50;99.90;;;;;;5071743;28;20040;-66
2023/06/09 07:27:08;;;;;;;3.85;1.70;;;20.50;99.90;;;;;;5071455;28;20511;-66
2023/06/09 07:29:35;;;;;;;3.05;1.50;;;20.70;99.90;;;;;;5070917;28;20408;-67
2023/06/09 07:32:04;;;;;;;3.92;1.90;;;20.90;99.90;;;;;;5071194;28;20087;-68
2023/06/09 07:34:31;;;;;;;7.07;2.22;;;21.00;99.90;;;;;;5071123;28;20037;-67
2023/06/09 07:36:59;;;;;;;7.53;1.90;;;21.00;99.90;;;;;;5072425;28;20094;-67
2023/06/09 07:39:27;;;;;;;5.55;1.75;;;21.10;99.90;;;;;;5070851;28;20102;-67
2023/06/09 07:41:53;;;;;;;3.78;1.73;;;21.30;99.90;;;;;;5070192;28;20044;-67
2023/06/09 07:44:19;;;;;;;7.78;1.73;;;21.60;99.90;;;;;;5071257;28;20102;-66
2023/06/09 07:46:45;;;;;;;3.80;1.88;;;21.80;99.90;;;;;;5070861;28;20132;-67
2023/06/09 07:49:11;;;;;;;4.82;1.92;;;22.00;99.90;;;;;;5070477;28;20044;-67
2023/06/09 07:51:37;;;;;;;4.88;1.85;;;22.10;99.90;;;;;;5070569;28;20447;-68
2023/06/09 07:54:06;;;;;;;3.75;1.70;;;22.20;99.90;;;;;;5054471;28;20052;-68
2023/06/09 07:56:33;;;;;;;3.78;1.63;;;22.20;99.90;;;;;;5068802;28;20047;-67
2023/06/09 07:58:59;;;;;;;4.13;1.88;;;22.50;99.90;;;;;;5060870;28;20047;-66
2023/06/09 08:01:25;;;;;;;3.10;1.67;;;22.50;99.90;;;;;;5032848;28;20087;-67
2023/06/09 08:03:51;;;;;;;9.80;2.00;;;22.60;99.90;;;;;;5032125;28;20056;-66
2023/06/09 08:06:17;;;;;;;3.40;1.40;;;22.60;99.90;;;;;;5049267;28;20036;-66
2023/06/09 08:08:44;;;;;;;4.43;1.55;;;22.80;99.90;;;;;;5049182;28;20043;-68
2023/06/09 08:11:11;;;;;;;6.85;2.00;;;22.90;99.90;;;;;;5032669;28;20091;-66
2023/06/09 08:13:36;;;;;;;4.03;1.80;;;23.10;99.90;;;;;;5047022;28;20036;-67
2023/06/09 08:16:03;;;;;;;5.05;1.58;;;23.10;99.90;;;;;;5030844;28;20049;-67
2023/06/09 08:18:29;;;;;;;3.85;1.52;;;23.30;99.90;;;;;;5047727;28;20040;-66
2023/06/09 08:20:54;;;;;;;4.20;1.63;;;23.50;99.90;;;;;;5047207;28;20037;-67
2023/06/09 08:23:20;;;;;;;2.75;1.55;;;23.60;99.90;;;;;;5047242;28;20048;-66
2023/06/09 08:25:47;;;;;;;5.20;1.77;;;23.80;99.90;;;;;;5046794;28;20049;-68
2023/06/09 08:28:13;;;;;;;4.15;1.65;;;23.80;99.90;;;;;;5046990;28;20496;-67
2023/06/09 08:30:39;;;;;;;3.13;1.20;;;23.90;99.90;;;;;;5046618;28;20053;-67
2023/06/09 08:33:05;;;;;;;3.90;1.48;;;24.00;99.90;;;;;;5047077;28;20086;-67
2023/06/09 08:35:32;;;;;;;8.30;1.95;;;24.30;99.90;;;;;;5046959;28;20064;-68
2023/06/09 08:38:01;;;;;;;3.88;1.40;;;24.50;99.90;;;;;;5047545;28;20052;-68
2023/06/09 08:40:27;;;;;;;2.72;1.70;;;24.60;99.90;;;;;;5048095;28;20068;-67
2023/06/09 08:43:00;;;;;;;5.53;1.80;;;24.80;99.90;;;;;;5046770;28;20072;-68
2023/06/09 08:45:30;;;;;;;2.00;1.17;;;25.00;99.90;;;;;;5046500;28;20102;-68
2023/06/09 08:48:00;;;;;;;6.03;2.33;;;25.20;99.90;;;;;;5053157;28;20052;-67
2023/06/09 08:50:30;;;;;;;3.25;1.63;;;25.40;99.90;;;;;;5047755;28;20064;-67
2023/06/09 08:52:56;;;;;;;3.78;1.48;;;25.60;99.90;;;;;;5057690;28;20131;-67
2023/06/09 08:55:23;;;;;;;3.15;1.92;;;25.70;99.90;;;;;;5068078;28;20116;-68
2023/06/09 08:57:50;;;;;;;5.47;1.63;;;25.60;99.90;;;;;;5067136;28;20040;-66
2023/06/09 09:00:16;;;;;;;3.90;1.98;;;25.60;99.90;;;;;;5049329;28;20090;-67
2023/06/09 09:02:46;;;;;;;5.20;1.52;;;25.80;99.90;;;;;;5066475;28;20040;-67
2023/06/09 09:05:11;;;;;;;4.53;1.85;;;25.90;99.90;;;;;;5067420;28;20052;-67
2023/06/09 09:07:38;;;;;;;2.13;1.40;;;26.10;99.90;;;;;;5066983;28;20044;-67
2023/06/09 09:10:04;;;;;;;3.88;1.38;;;26.30;99.90;;;;;;5067763;28;20040;-67
2023/06/09 09:12:47;;;;;;;3.70;1.70;;;26.50;99.70;;;;;;5066077;28;20109;-68
2023/06/09 09:15:13;;;;;;;2.85;1.58;;;26.60;97.20;;;;;;5066336;28;20105;-67
2023/06/09 09:17:40;;;;;;;2.67;1.48;;;26.50;98.60;;;;;;5066090;28;20040;-67
2023/06/09 09:20:07;;;;;;;5.82;1.55;;;26.50;97.90;;;;;;5065673;28;20035;-68
2023/06/09 09:22:50;;;;;;;2.42;1.60;;;26.80;98.20;;;;;;5067659;28;20400;-66
2023/06/09 09:25:27;;;;;;;3.67;1.45;;;27.10;94.90;;;;;;5066099;28;20366;-66
2023/06/09 09:28:00;;;;;;;4.93;1.50;;;27.20;94.80;;;;;;5067051;28;20090;-66
2023/06/09 09:30:54;;;;;;;4.88;1.38;;;27.30;92.80;;;;;;5049358;28;20489;-67
2023/06/09 09:33:22;;;;;;;4.60;2.03;;;27.40;95.30;;;;;;5040954;28;20516;-66
2023/06/09 09:35:50;;;;;;;2.95;1.48;;;27.60;96.40;;;;;;5048760;28;20436;-66
2023/06/09 09:38:24;;;;;;;4.15;1.63;;;27.70;94.30;;;;;;5048317;28;20410;-66
2023/06/09 09:40:59;;;;;;;5.80;1.60;;;27.80;94.50;;;;;;5047308;28;20075;-65
2023/06/09 09:43:26;;;;;;;4.55;1.77;;;27.80;94.00;;;;;;5059678;28;20451;-65
2023/06/09 09:45:53;;;;;;;2.35;1.52;;;27.90;94.90;;;;;;5068771;28;20465;-65
2023/06/09 09:48:24;;;;;;;2.35;1.33;;;27.90;93.10;;;;;;5069608;28;20507;-66
2023/06/09 09:50:52;;;;;;;3.85;1.67;;;27.90;93.60;;;;;;5069723;28;20491;-66
2023/06/09 09:53:23;;;;;;;5.13;1.63;;;27.90;93.10;;;;;;5051953;28;20040;-65
2023/06/09 09:55:52;;;;;;;2.28;1.35;;;28.00;92.10;;;;;;5050878;28;20072;-66
2023/06/09 09:58:18;;;;;;;3.58;1.90;;;28.10;92.60;;;;;;5065912;28;20033;-65
2023/06/09 10:00:46;;;;;;;3.13;1.52;;;28.20;92.90;;;;;;5067830;28;20409;-66
2023/06/09 10:03:19;;;;;;;3.17;1.50;;;28.20;92.00;;;;;;5068460;28;20380;-66
2023/06/09 10:05:47;;;;;;;4.70;1.55;;;28.30;90.00;;;;;;5067719;28;20037;-65
2023/06/09 10:08:22;;;;;;;2.75;1.50;;;28.30;91.80;;;;;;5067502;28;20505;-67
2023/06/09 10:10:50;;;;;;;5.03;1.77;;;28.30;91.80;;;;;;5067159;28;20501;-66
2023/06/09 10:13:16;;;;;;;2.20;1.52;;;28.50;92.50;;;;;;5067471;28;20106;-66
2023/06/09 10:15:44;;;;;;;4.40;1.17;;;28.70;92.70;;;;;;5067775;28;20041;-67
2023/06/09 10:18:12;;;;;;;2.90;1.77;;;28.90;92.20;;;;;;5068077;28;20384;-65
2023/06/09 10:20:41;;;;;;;3.10;1.60;;;29.30;91.70;;;;;;5067600;28;20037;-66
2023/06/09 10:23:07;;;;;;;2.35;1.33;;;29.30;90.60;;;;;;5066995;28;20505;-65
2023/06/09 10:25:33;;;;;;;2.78;1.30;;;29.50;85.60;;;;;;5067506;28;20036;-65
2023/06/09 10:27:59;;;;;;;3.35;1.85;;;29.50;88.00;;;;;;5050999;28;20567;-66
2023/06/09 10:30:26;;;;;;;2.83;1.58;;;29.50;89.70;;;;;;5066623;28;20119;-67
2023/06/09 10:33:05;;;;;;;4.13;1.55;;;29.60;86.50;;;;;;5050617;28;20041;-66
2023/06/09 10:35:34;;;;;;;2.45;1.23;;;29.60;85.70;;;;;;5067512;28;20094;-65
2023/06/09 10:38:19;;;;;;;;;;;29.80;86.20;;;;;;5068288;28;20036;-67
2023/06/09 10:40:49;;;;;;;2.08;1.38;;;29.90;78.70;;;;;;5066978;28;19916;-65
2023/06/09 10:43:30;;;;;;;5.90;1.80;;;30.00;82.70;;;;;;5067028;28;20055;-65
2023/06/09 10:45:57;;;;;;;4.95;1.60;;;29.90;80.90;;;;;;5050161;28;20101;-65
2023/06/09 10:48:45;;;;;;;3.90;1.50;;;29.90;83.20;;;;;;5067414;28;20122;-65
2023/06/09 10:51:38;;;;;;;2.83;1.27;;;29.90;81.10;;;;;;5068429;28;20143;-65
2023/06/09 10:54:10;;;;;;;2.50;1.60;;;29.90;77.90;;;;;;5065489;28;20048;-66
2023/06/09 10:56:40;;;;;;;2.25;1.13;;;29.80;82.10;;;;;;5069653;28;20032;-66
2023/06/09 10:59:05;;;;;;;2.95;1.85;;;30.00;82.60;;;;;;5067789;28;20040;-65
2023/06/09 11:01:32;;;;;;;2.60;1.60;;;30.20;82.20;;;;;;5069448;28;20047;-66
2023/06/09 11:03:58;;;;;;;3.67;1.33;;;30.30;81.30;;;;;;5069412;28;20047;-67
2023/06/09 11:06:24;;;;;;;2.75;1.40;;;30.40;80.40;;;;;;5050598;28;20072;-66
2023/06/09 11:09:11;;;;;;;2.78;1.60;;;30.40;78.70;;;;;;5068201;28;20028;-66
2023/06/09 11:11:56;;;;;;;1.95;1.25;;;30.30;76.60;;;;;;5067216;28;20071;-66
2023/06/09 11:14:44;;;;;;;2.58;1.42;;;30.30;73.50;;;;;;5068202;28;20036;-65
2023/06/09 11:17:28;;;;;;;4.82;1.88;;;30.10;77.50;;;;;;5069418;28;20033;-66
2023/06/09 11:20:09;;;;;;;4.30;1.70;;;30.20;78.30;;;;;;5068583;28;20068;-67
2023/06/09 11:22:59;;;;;;;3.75;2.00;;;30.30;77.00;;;;;;5067566;28;20040;-67
2023/06/09 11:25:26;;;;;;;3.88;1.75;;;30.40;73.30;;;;;;5052920;28;20041;-66
2023/06/09 11:27:57;;;;;;;3.60;1.50;;;30.40;77.70;;;;;;5065852;28;20509;-65
2023/06/09 11:30:25;;;;;;;2.63;1.48;;;30.60;77.50;;;;;;5048734;28;20068;-65
2023/06/09 11:32:53;;;;;;;2.55;1.00;;;30.70;77.70;;;;;;5050222;28;20135;-66
2023/06/09 11:35:28;;;;;;;3.53;1.17;;;30.90;76.40;;;;;;5050901;28;20168;-66
2023/06/09 11:38:08;;;;;;;3.38;1.63;;;31.00;76.70;;;;;;5050547;28;20443;-65
2023/06/09 11:40:52;;;;;;;3.42;1.40;;;31.00;76.20;;;;;;5046238;28;20041;-66
2023/06/09 11:43:19;;;;;;;2.00;1.40;;;30.90;74.00;;;;;;5057118;28;20322;-68
2023/06/09 11:45:46;;;;;;;2.42;1.35;;;30.70;75.60;;;;;;5049195;28;20445;-67
2023/06/09 11:48:12;;;;;;;3.28;1.60;;;30.70;75.40;;;;;;5046282;28;20520;-67
2023/06/09 11:50:44;;;;;;;1.92;1.33;;;30.70;75.60;;;;;;5047543;28;20061;-65
2023/06/09 11:53:12;;;;;;;2.20;1.20;;;30.80;74.70;;;;;;5047790;28;20041;-65
2023/06/09 11:55:38;;;;;;;3.42;1.50;;;30.80;74.10;;;;;;5048664;28;20124;-66
2023/06/09 11:58:08;;;;;;;3.25;1.48;;;30.80;74.70;;;;;;5047646;28;20175;-65
2023/06/09 12:00:40;;;;;;;1.77;1.10;;;30.90;74.90;;;;;;5047472;28;20390;-65
2023/06/09 12:03:07;;;;;;;2.40;1.60;;;30.90;73.30;;;;;;5048039;28;20417;-67
2023/06/09 12:05:33;;;;;;;2.45;1.48;;;30.90;74.00;;;;;;5031501;28;20093;-66
2023/06/09 12:08:02;;;;;;;3.85;1.75;;;31.00;74.40;;;;;;5047127;28;20056;-65
2023/06/09 12:10:28;;;;;;;3.30;1.10;;;31.10;73.70;;;;;;5047487;28;20382;-65
2023/06/09 12:12:56;;;;;;;1.35;1.00;;;31.10;72.40;;;;;;5049211;28;20324;-66
2023/06/09 12:15:26;;;;;;;2.67;1.60;;;31.00;71.40;;;;;;5048620;28;20479;-67
2023/06/09 12:17:56;;;;;;;2.40;1.33;;;30.90;70.10;;;;;;5048192;28;20041;-67
2023/06/09 12:20:33;;;;;;;2.08;1.30;;;30.80;67.10;;;;;;5054219;28;20131;-66
2023/06/09 12:23:12;;;;;;;5.43;1.88;;;30.60;68.40;;;;;;5047079;28;20761;-65
2023/06/09 12:25:41;;;;;;;;;;;30.40;67.80;;;;;;5049091;28;20070;-65
2023/06/09 12:28:26;;;;;;;2.78;1.20;;;30.40;68.40;;;;;;5030907;28;19917;-66
2023/06/09 12:30:56;;;;;;;3.13;1.10;;;30.30;67.70;;;;;;5046941;28;20123;-66
2023/06/09 12:33:29;;;;;;;1.45;1.08;;;30.40;69.50;;;;;;5058354;28;20061;-67
2023/06/09 12:36:04;;;;;;;2.20;1.67;;;30.60;69.60;;;;;;5066868;28;20076;-66
2023/06/09 12:38:35;;;;;;;2.90;1.70;;;30.70;69.10;;;;;;5066773;28;20040;-66
2023/06/09 12:41:09;;;;;;;2.72;1.70;;;30.70;68.40;;;;;;5068421;28;20043;-66
2023/06/09 12:43:50;;;;;;;4.97;1.42;;;30.60;66.30;;;;;;5066116;28;20123;-67
2023/06/09 12:46:27;;;;;;;2.35;1.38;;;30.40;67.30;;;;;;5068084;28;20041;-67
2023/06/09 12:48:57;;;;;;;2.50;1.25;;;30.40;67.70;;;;;;5067161;28;20080;-65
2023/06/09 12:51:23;;;;;;;2.25;1.70;;;30.40;67.00;;;;;;5067512;28;20060;-65
2023/06/09 12:53:50;;;;;;;3.55;1.98;;;30.30;67.10;;;;;;5066900;28;20049;-65
2023/06/09 12:56:17;;;;;;;2.15;1.60;;;30.30;65.40;;;;;;5068641;28;20507;-65